Time;durP1;ratioP1;P1;durP2;ratioP2;P2;SDS_P1;SDS_P2;PMS_P1;PMS_P2;Temp;Humidity;BMP_temperature;BMP_pressure;BME280_temperature;BME280_humidity;BME280_pressure;Samples;Min_cycle;Max_cycle;Signal;HPM_P1;HPM_P2
2023/01/10 00:01:24;;;;;;;14.82;3.47;;;;;;;5.19;98.55;101079.66;4866841;29;20046;-73
2023/01/10 00:03:51;;;;;;;14.90;3.28;;;;;;;5.17;98.51;101087.47;4861633;29;20050;-73
2023/01/10 00:06:18;;;;;;;15.68;3.15;;;;;;;5.15;98.28;101089.22;4874336;29;20042;-74
2023/01/10 00:08:45;;;;;;;12.65;3.20;;;;;;;5.12;98.29;101097.94;4873782;29;20053;-73
2023/01/10 00:13:58;;;;;;;14.05;3.65;;;;;;;5.07;98.05;101101.47;4874438;29;20117;-74
2023/01/10 00:16:25;;;;;;;14.23;2.97;;;;;;;5.03;98.08;101104.97;4875556;29;20102;-73
2023/01/10 00:18:52;;;;;;;16.10;3.40;;;;;;;4.99;97.95;101125.00;4870516;29;20049;-74
2023/01/10 00:21:20;;;;;;;17.58;3.50;;;;;;;4.93;98.02;101130.25;4878426;29;20162;-75
2023/01/10 00:23:47;;;;;;;12.57;3.10;;;;;;;4.87;97.90;101128.50;4870652;29;20057;-74
2023/01/10 00:26:15;;;;;;;19.70;3.58;;;;;;;4.84;98.06;101136.34;4870080;29;20050;-74
2023/01/10 00:28:42;;;;;;;13.60;3.22;;;;;;;4.80;98.07;101134.63;4867843;29;20046;-73
2023/01/10 00:31:10;;;;;;;12.93;3.35;;;;;;;4.78;98.00;101149.44;4865287;29;20094;-75
2023/01/10 00:33:38;;;;;;;15.73;3.42;;;;;;;4.74;98.02;101152.91;4869507;29;20546;-74
2023/01/10 00:36:07;;;;;;;14.98;3.13;;;;;;;4.73;97.92;101161.63;4876485;29;20142;-76
2023/01/10 00:38:35;;;;;;;12.70;3.20;;;;;;;4.69;98.14;101163.34;4862915;29;20050;-74
2023/01/10 00:43:55;;;;;;;15.88;3.28;;;;;;;4.64;98.15;101160.75;4874666;29;20434;-75
2023/01/10 00:43:56;;;;;;;21.83;4.10;;;;;;;4.60;98.09;101165.97;4865640;29;20054;-75
2023/01/10 00:46:26;;;;;;;14.60;3.15;;;;;;;4.58;97.96;101172.97;4875102;29;20523;-75
2023/01/10 00:48:53;;;;;;;13.13;3.47;;;;;;;4.53;98.08;101178.16;4871969;29;20156;-75
2023/01/10 00:51:20;;;;;;;16.65;3.30;;;;;;;4.49;98.14;101179.03;4869378;29;20086;-75
2023/01/10 00:53:47;;;;;;;15.48;3.15;;;;;;;4.46;98.04;101184.25;4870447;29;20082;-75
2023/01/10 00:56:15;;;;;;;17.90;3.88;;;;;;;4.43;98.13;101192.97;4864762;29;20041;-74
2023/01/10 00:58:43;;;;;;;18.52;3.60;;;;;;;4.41;98.32;101196.44;4868046;29;20050;-75
2023/01/10 01:01:10;;;;;;;15.70;3.22;;;;;;;4.37;98.28;101195.59;4873463;29;20054;-75
2023/01/10 01:03:37;;;;;;;13.77;3.00;;;;;;;4.33;98.43;101192.06;4865717;29;20082;-75
2023/01/10 01:06:06;;;;;;;13.63;3.05;;;;;;;4.32;98.31;101195.53;4870377;29;20096;-75
2023/01/10 01:08:33;;;;;;;13.63;3.05;;;;;;;4.30;98.52;101197.31;4870534;29;20977;-75
2023/01/10 01:11:01;;;;;;;12.88;3.35;;;;;;;4.28;98.60;101204.25;4864425;29;20064;-77
2023/01/10 01:13:28;;;;;;;20.38;3.70;;;;;;;4.30;98.63;101214.69;4873132;29;20145;-75
2023/01/10 01:15:59;;;;;;;13.02;3.63;;;;;;;4.29;98.58;101220.78;4872681;29;20050;-75
2023/01/10 01:18:27;;;;;;;8.85;3.25;;;;;;;4.28;98.45;101225.13;4867215;29;20606;-74
2023/01/10 01:20:59;;;;;;;15.38;3.65;;;;;;;4.27;98.43;101227.75;4868315;29;20062;-74
2023/01/10 01:23:26;;;;;;;10.45;2.83;;;;;;;4.25;98.44;101235.56;4871849;29;20057;-75
2023/01/10 01:25:55;;;;;;;16.65;3.40;;;;;;;4.24;98.53;101236.44;4860251;29;20053;-76
2023/01/10 01:28:23;;;;;;;16.35;3.70;;;;;;;4.22;98.50;101242.53;4864092;29;20125;-75
2023/01/10 01:30:50;;;;;;;11.98;3.33;;;;;;;4.20;98.52;101245.13;4862855;29;20046;-75
2023/01/10 01:33:18;;;;;;;9.68;2.67;;;;;;;4.18;98.52;101252.94;4865151;29;20050;-74
2023/01/10 01:35:48;;;;;;;14.95;3.15;;;;;;;4.19;98.72;101248.63;4856099;29;20042;-75
2023/01/10 01:38:16;;;;;;;13.75;3.60;;;;;;;4.21;98.63;101244.28;4863042;29;20046;-75
2023/01/10 01:40:44;;;;;;;12.15;3.00;;;;;;;4.22;98.66;101245.13;4868286;29;20059;-74
2023/01/10 01:43:27;;;;;;;16.75;3.33;;;;;;;4.22;98.57;101251.25;4863343;29;20054;-76
2023/01/10 01:45:58;;;;;;;15.73;3.28;;;;;;;4.23;98.54;101252.97;4868406;29;20139;-75
2023/01/10 01:48:42;;;;;;;13.98;3.20;;;;;;;4.22;98.40;101256.47;4869672;29;20053;-76
2023/01/10 01:51:19;;;;;;;14.53;3.13;;;;;;;4.20;98.39;101261.66;4870077;29;20050;-75
2023/01/10 01:53:57;;;;;;;19.52;3.30;;;;;;;4.13;98.47;101254.69;4873176;29;20046;-75
2023/01/10 01:56:41;;;;;;;14.05;2.70;;;;;;;4.16;98.18;101270.38;4872650;29;20045;-75
2023/01/10 01:59:49;;;;;;;15.73;3.70;;;;;;;4.14;98.18;101271.19;4868602;29;20628;-74
2023/01/10 02:02:24;;;;;;;19.50;3.90;;;;;;;4.11;98.20;101271.22;4871119;29;20276;-74
2023/01/10 02:05:21;;;;;;;15.23;3.40;;;;;;;4.11;98.14;101277.28;4865377;29;20076;-73
2023/01/10 02:07:54;;;;;;;13.73;3.53;;;;;;;4.10;98.48;101275.53;4865647;29;20061;-75
2023/01/10 02:10:48;;;;;;;15.10;3.28;;;;;;;4.16;98.50;101292.97;4870512;29;20439;-73
2023/01/10 02:13:22;;;;;;;17.52;3.25;;;;;;;4.24;98.81;101296.47;4858430;29;20164;-74
2023/01/10 02:15:49;;;;;;;15.52;3.45;;;;;;;4.34;98.92;101294.75;4864261;29;22128;-74
2023/01/10 02:18:19;;;;;;;14.13;2.90;;;;;;;4.40;98.77;101296.53;4871742;29;20128;-74
2023/01/10 02:21:19;;;;;;;13.55;3.45;;;;;;;4.43;98.71;101300.00;4871132;29;20059;-77
2023/01/10 02:24:20;;;;;;;16.17;3.47;;;;;;;4.46;98.37;101307.84;4870694;29;20052;-77
2023/01/10 02:27:19;;;;;;;12.68;3.30;;;;;;;4.48;98.72;101298.25;4859032;29;20053;-75
2023/01/10 02:30:23;;;;;;;13.68;3.33;;;;;;;4.51;98.53;101300.03;4873168;29;20054;-75
2023/01/10 02:33:15;;;;;;;21.98;4.20;;;;;;;4.54;98.58;101294.78;4859653;29;20045;-74
2023/01/10 02:36:00;;;;;;;11.57;3.42;;;;;;;4.56;98.78;101300.91;4857527;29;20061;-74
2023/01/10 02:39:03;;;;;;;15.50;3.83;;;;;;;4.59;98.78;101300.03;4855950;29;20052;-75
2023/01/10 02:41:49;;;;;;;16.63;4.53;;;;;;;4.64;98.89;101306.16;4863405;29;20125;-75
2023/01/10 02:44:29;;;;;;;12.50;3.60;;;;;;;4.66;98.63;101314.88;4868520;29;20048;-75
2023/01/10 02:46:56;;;;;;;17.05;4.10;;;;;;;4.68;98.92;101314.84;4871194;29;20049;-74
2023/01/10 02:49:23;;;;;;;14.73;3.95;;;;;;;4.71;98.91;101322.69;4868683;29;20049;-73
2023/01/10 02:51:51;;;;;;;16.63;4.47;;;;;;;4.72;98.70;101322.69;4872294;29;20048;-75
2023/01/10 02:54:25;;;;;;;14.88;3.78;;;;;;;4.73;98.81;101320.97;4870525;29;20075;-74
2023/01/10 02:57:35;;;;;;;13.10;3.67;;;;;;;4.75;98.72;101322.72;4870947;29;20037;-74
2023/01/10 03:00:41;;;;;;;16.95;4.13;;;;;;;4.73;98.87;101311.38;4865670;29;20053;-71
2023/01/10 03:03:35;;;;;;;18.20;3.95;;;;;;;4.70;98.73;101320.97;4865560;29;20157;-74
2023/01/10 03:06:35;;;;;;;15.23;4.18;;;;;;;4.71;98.97;101310.50;4865469;29;20089;-74
2023/01/10 03:09:21;;;;;;;10.80;3.80;;;;;;;4.69;98.86;101316.59;4853793;29;20626;-75
2023/01/10 03:12:06;;;;;;;13.20;3.88;;;;;;;4.66;98.61;101315.72;4865540;29;20088;-75
2023/01/10 03:14:38;;;;;;;13.90;3.35;;;;;;;4.62;98.62;101324.44;4859852;29;20065;-76
2023/01/10 03:17:11;;;;;;;14.05;3.92;;;;;;;4.58;98.64;101333.13;4863701;29;20089;-75
2023/01/10 03:19:49;;;;;;;13.38;3.70;;;;;;;4.55;98.88;101329.63;4861445;29;20052;-73
2023/01/10 03:22:16;;;;;;;18.73;5.05;;;;;;;4.54;98.87;101335.72;4855669;29;20054;-74
2023/01/10 03:24:54;;;;;;;15.05;3.92;;;;;;;4.53;98.84;101347.03;4872558;29;20050;-73
2023/01/10 03:27:55;;;;;;;22.02;4.38;;;;;;;4.42;98.62;101350.47;4870120;29;20057;-74
2023/01/10 03:30:36;;;;;;;16.40;3.95;;;;;;;4.35;98.51;101360.03;4855269;29;20110;-73
2023/01/10 03:33:05;;;;;;;17.30;4.13;;;;;;;4.28;98.69;101365.19;4864227;29;20045;-73
2023/01/10 03:35:44;;;;;;;15.68;3.60;;;;;;;4.23;98.60;101377.38;4869956;29;20057;-73
2023/01/10 03:38:28;;;;;;;14.15;3.83;;;;;;;4.18;98.95;101374.75;4864346;29;20149;-74
2023/01/10 03:41:24;;;;;;;22.45;4.13;;;;;;;4.17;99.12;101384.28;4856449;29;20768;-74
2023/01/10 03:47:26;;;;;;;18.83;3.72;;;;;;;4.15;99.23;101383.44;4861217;29;20051;-75
2023/01/10 03:50:01;;;;;;;13.93;4.30;;;;;;;4.14;99.32;101389.53;4868715;29;20114;-73
2023/01/10 03:52:32;;;;;;;12.25;3.25;;;;;;;4.11;99.08;101401.69;4866106;29;20085;-74
2023/01/10 03:54:59;;;;;;;17.45;3.55;;;;;;;4.08;99.14;101392.09;4864081;29;20043;-73
2023/01/10 03:57:26;;;;;;;14.15;3.88;;;;;;;4.05;99.29;101394.69;4871399;29;20049;-73
2023/01/10 03:59:56;;;;;;;14.73;3.63;;;;;;;4.03;99.04;101399.88;4869202;29;20052;-74
2023/01/10 04:02:30;;;;;;;20.50;3.90;;;;;;;4.02;99.43;101402.50;4868872;29;20049;-74
2023/01/10 04:04:58;;;;;;;15.60;3.38;;;;;;;4.01;99.25;101413.78;4862226;29;20050;-74
2023/01/10 04:07:26;;;;;;;17.30;3.85;;;;;;;3.99;99.61;101410.28;4858794;29;20540;-76
2023/01/10 04:09:53;;;;;;;14.85;3.80;;;;;;;3.99;99.71;101407.69;4859657;29;20061;-75
2023/01/10 04:12:20;;;;;;;17.00;3.42;;;;;;;3.98;99.58;101399.00;4859373;29;20054;-74
2023/01/10 04:14:47;;;;;;;16.05;3.22;;;;;;;3.98;99.50;101396.41;4874959;29;20844;-73
2023/01/10 04:17:16;;;;;;;19.33;3.72;;;;;;;4.00;99.44;101404.22;4873081;29;20048;-74
2023/01/10 04:19:44;;;;;;;18.48;4.03;;;;;;;3.99;99.45;101405.06;4872209;29;20041;-75
2023/01/10 04:22:11;;;;;;;21.50;4.10;;;;;;;3.98;99.44;101412.03;4866674;29;20562;-74
2023/01/10 04:24:39;;;;;;;13.40;3.40;;;;;;;3.98;99.49;101405.94;4874124;29;20053;-74
2023/01/10 04:27:06;;;;;;;16.02;3.25;;;;;;;3.96;99.39;101405.09;4870055;29;20531;-73
2023/01/10 04:29:33;;;;;;;14.70;2.75;;;;;;;3.97;99.55;101417.28;4872753;29;20078;-73
2023/01/10 04:32:00;;;;;;;16.30;3.60;;;;;;;3.95;99.24;101419.00;4873082;29;20046;-76
2023/01/10 04:34:27;;;;;;;16.17;3.50;;;;;;;3.91;99.24;101418.09;4874156;29;20054;-75
2023/01/10 04:36:54;;;;;;;20.55;3.35;;;;;;;3.86;99.25;101409.34;4872470;29;20050;-75
2023/01/10 04:39:21;;;;;;;14.57;3.20;;;;;;;3.82;99.42;101413.69;4866701;29;20874;-76
2023/01/10 04:41:48;;;;;;;18.70;3.55;;;;;;;3.79;99.23;101412.78;4873293;29;21712;-74
2023/01/10 04:44:15;;;;;;;23.83;3.78;;;;;;;3.75;99.31;101424.06;4872704;29;20057;-75
2023/01/10 04:46:42;;;;;;;17.00;3.13;;;;;;;3.73;99.57;101421.44;4869437;29;20045;-75
2023/01/10 04:49:10;;;;;;;14.60;3.40;;;;;;;3.70;99.47;101432.72;4857205;29;20647;-75
2023/01/10 04:51:37;;;;;;;17.60;3.58;;;;;;;3.68;99.61;101431.84;4872124;29;20053;-75
2023/01/10 04:54:04;;;;;;;21.70;4.35;;;;;;;3.68;99.68;101447.50;4872373;29;20529;-75
2023/01/10 04:56:31;;;;;;;16.38;3.80;;;;;;;3.68;99.59;101441.38;4872882;29;20766;-75
2023/01/10 04:58:58;;;;;;;21.80;3.58;;;;;;;3.66;99.83;101445.75;4871668;29;20056;-75
2023/01/10 05:01:25;;;;;;;18.52;3.28;;;;;;;3.67;99.53;101435.31;4872705;29;20945;-76
2023/01/10 05:03:54;;;;;;;18.02;3.80;;;;;;;3.67;99.84;101444.84;4871311;29;20550;-76
2023/01/10 05:06:23;;;;;;;16.15;3.33;;;;;;;3.67;99.68;101445.75;4870900;29;20940;-75
2023/01/10 05:08:51;;;;;;;21.52;3.83;;;;;;;3.65;99.89;101450.06;4873950;29;20045;-76
2023/01/10 05:11:17;;;;;;;22.75;3.70;;;;;;;3.66;99.75;101457.03;4887011;29;20038;-77
2023/01/10 05:13:44;;;;;;;22.25;4.18;;;;;;;3.65;100.00;101462.25;4870409;29;20113;-75
2023/01/10 05:16:14;;;;;;;19.17;3.45;;;;;;;3.64;99.79;101458.75;4873088;29;20546;-76
2023/01/10 05:18:42;;;;;;;18.45;3.95;;;;;;;3.63;99.83;101466.56;4873179;29;20049;-75
2023/01/10 05:21:12;;;;;;;16.40;3.83;;;;;;;3.60;99.96;101470.03;4865185;29;20041;-76
2023/01/10 05:23:39;;;;;;;28.05;4.25;;;;;;;3.57;99.93;101470.84;4869882;29;20045;-75
2023/01/10 05:26:22;;;;;;;16.75;3.15;;;;;;;3.58;99.97;101467.38;4872590;29;20884;-74
2023/01/10 05:28:49;;;;;;;17.75;3.50;;;;;;;3.55;100.00;101458.66;4865655;29;20056;-76
2023/01/10 05:31:18;;;;;;;21.83;3.30;;;;;;;3.56;100.00;101450.00;4869044;29;20045;-74
2023/01/10 05:33:49;;;;;;;21.90;3.33;;;;;;;3.56;100.00;101457.81;4860637;29;20045;-72
2023/01/10 05:36:18;;;;;;;18.15;3.65;;;;;;;3.57;100.00;101470.84;4858768;29;20049;-72
2023/01/10 05:38:45;;;;;;;15.60;3.35;;;;;;;3.57;100.00;101481.28;4863442;29;20849;-74
2023/01/10 05:41:12;;;;;;;18.77;3.80;;;;;;;3.59;100.00;101489.13;4866657;29;20046;-74
2023/01/10 05:43:40;;;;;;;21.30;3.50;;;;;;;3.63;100.00;101501.31;4864117;29;21197;-73
2023/01/10 05:46:07;;;;;;;16.73;3.42;;;;;;;3.68;100.00;101510.06;4863537;29;20073;-72
2023/01/10 05:48:34;;;;;;;23.70;3.38;;;;;;;3.78;100.00;101518.84;4863388;29;20145;-73
2023/01/10 05:51:02;;;;;;;21.65;3.53;;;;;;;3.87;100.00;101523.28;4869843;29;20060;-72
2023/01/10 05:53:29;;;;;;;15.65;3.35;;;;;;;3.99;100.00;101528.59;4867001;29;20049;-74
2023/01/10 05:56:00;;;;;;;19.50;3.40;;;;;;;4.07;100.00;101512.97;4865028;29;20048;-73
2023/01/10 05:58:29;;;;;;;25.52;3.88;;;;;;;4.15;100.00;101513.94;4860509;29;20070;-74
2023/01/10 06:00:56;;;;;;;16.77;4.05;;;;;;;4.23;100.00;101523.53;4864143;29;20073;-74
2023/01/10 06:03:25;;;;;;;22.67;3.60;;;;;;;4.28;100.00;101522.72;4865660;29;20074;-73
2023/01/10 06:05:54;;;;;;;17.50;3.45;;;;;;;4.35;100.00;101519.28;4864543;29;20963;-74
2023/01/10 06:08:23;;;;;;;20.25;3.38;;;;;;;4.39;100.00;101525.38;4861258;29;20104;-74
2023/01/10 06:10:50;;;;;;;19.23;3.55;;;;;;;4.44;100.00;101533.25;4863627;29;20435;-73
2023/01/10 06:13:17;;;;;;;18.42;3.83;;;;;;;4.48;99.93;101548.06;4866959;29;20140;-73
2023/01/10 06:15:44;;;;;;;24.95;4.00;;;;;;;4.43;99.53;101537.59;4863692;29;20046;-74
2023/01/10 06:18:11;;;;;;;19.58;3.20;;;;;;;4.38;99.20;101536.69;4863895;29;20052;-73
2023/01/10 06:20:42;;;;;;;21.75;4.18;;;;;;;4.34;99.16;101542.78;4862623;29;20045;-74
2023/01/10 06:23:09;;;;;;;19.13;3.30;;;;;;;4.29;99.17;101532.28;4861255;29;20921;-73
2023/01/10 06:25:39;;;;;;;26.77;4.10;;;;;;;4.25;99.00;101543.56;4861096;29;20042;-73
2023/01/10 06:28:09;;;;;;;23.92;4.30;;;;;;;4.23;99.18;101545.28;4864072;29;20042;-73
2023/01/10 06:30:37;;;;;;;17.13;3.47;;;;;;;4.22;99.27;101554.00;4854846;29;20049;-72
2023/01/10 06:33:07;;;;;;;18.92;3.78;;;;;;;4.23;99.08;101562.69;4856752;29;20052;-72
2023/01/10 06:35:35;;;;;;;18.25;3.60;;;;;;;4.24;99.02;101561.84;4870459;29;20102;-72
2023/01/10 06:38:03;;;;;;;19.17;3.83;;;;;;;4.22;99.16;101561.84;4865090;29;20046;-72
2023/01/10 06:40:30;;;;;;;15.30;3.28;;;;;;;4.17;98.93;101567.00;4855737;29;20050;-73
2023/01/10 06:42:58;;;;;;;23.85;3.88;;;;;;;4.10;98.92;101572.19;4864899;29;20046;-73
2023/01/10 06:45:25;;;;;;;22.80;3.70;;;;;;;4.08;99.27;101573.88;4861672;29;20054;-72
2023/01/10 06:47:52;;;;;;;22.27;3.55;;;;;;;4.12;99.53;101576.53;4859788;29;20068;-73
2023/01/10 06:50:19;;;;;;;23.80;3.72;;;;;;;4.18;99.84;101583.53;4867803;29;20117;-73
2023/01/10 06:52:55;;;;;;;23.27;3.55;;;;;;;4.29;99.99;101583.63;4863935;29;20053;-73
2023/01/10 06:55:23;;;;;;;19.83;3.20;;;;;;;4.35;100.00;101591.50;4864814;29;20045;-73
2023/01/10 06:57:59;;;;;;;22.45;3.25;;;;;;;4.39;100.00;101588.03;4862777;29;20053;-72
2023/01/10 07:00:28;;;;;;;21.42;3.45;;;;;;;4.43;100.00;101591.53;4864004;29;20542;-73
2023/01/10 07:03:01;;;;;;;22.42;4.00;;;;;;;4.49;100.00;101599.44;4860902;29;20507;-73
2023/01/10 07:05:29;;;;;;;26.05;4.05;;;;;;;4.52;100.00;101602.09;4873068;29;20125;-72
2023/01/10 07:07:57;;;;;;;25.65;3.95;;;;;;;4.56;100.00;101601.22;4872761;29;20053;-73
2023/01/10 07:10:24;;;;;;;22.50;3.63;;;;;;;4.58;100.00;101607.34;4855503;29;20516;-73
2023/01/10 07:12:54;;;;;;;25.48;3.90;;;;;;;4.61;99.93;101614.31;4872322;29;20065;-73
2023/01/10 07:15:22;;;;;;;23.70;4.32;;;;;;;4.62;100.00;101614.34;4869297;29;20140;-73
2023/01/10 07:17:49;;;;;;;24.67;3.38;;;;;;;4.64;99.81;101615.19;4862955;29;20077;-73
2023/01/10 07:20:16;;;;;;;19.88;4.03;;;;;;;4.63;99.70;101623.03;4865237;29;20049;-72
2023/01/10 07:22:52;;;;;;;26.67;4.00;;;;;;;4.61;99.57;101619.53;4861954;29;20542;-73
2023/01/10 07:25:19;;;;;;;22.20;3.70;;;;;;;4.60;99.56;101634.34;4859400;29;20042;-73
2023/01/10 07:27:46;;;;;;;22.00;3.92;;;;;;;4.61;99.58;101643.94;4854538;29;20475;-73
2023/01/10 07:30:13;;;;;;;24.92;3.58;;;;;;;4.65;99.67;101642.22;4863981;29;20053;-73
2023/01/10 07:32:40;;;;;;;22.65;3.60;;;;;;;4.66;99.46;101634.38;4865524;29;20558;-73
2023/01/10 07:35:08;;;;;;;22.40;3.60;;;;;;;4.64;98.97;101643.94;4867828;29;20138;-73
2023/01/10 07:37:35;;;;;;;27.80;3.60;;;;;;;4.58;98.70;101643.91;4870935;29;20502;-73
2023/01/10 07:40:02;;;;;;;18.50;3.50;;;;;;;4.50;98.33;101656.88;4855314;29;20490;-73
2023/01/10 07:42:29;;;;;;;26.65;3.85;;;;;;;4.41;98.24;101666.41;4862421;29;20128;-72
2023/01/10 07:44:56;;;;;;;19.90;4.28;;;;;;;4.33;97.94;101663.72;4871643;29;20045;-73
2023/01/10 07:47:23;;;;;;;21.73;4.30;;;;;;;4.25;97.99;101674.09;4873869;29;20037;-72
2023/01/10 07:49:50;;;;;;;23.08;4.22;;;;;;;4.18;98.06;101675.75;4876749;29;20761;-73
2023/01/10 07:52:17;;;;;;;19.10;3.40;;;;;;;4.13;98.16;101681.78;4876835;29;20084;-72
2023/01/10 07:54:44;;;;;;;23.95;4.07;;;;;;;4.10;98.07;101689.59;4874724;29;20053;-73
2023/01/10 07:57:11;;;;;;;24.05;3.67;;;;;;;4.08;97.96;101702.63;4876058;29;20045;-73
2023/01/10 07:59:38;;;;;;;20.50;3.67;;;;;;;4.05;97.93;101692.16;4865157;29;20054;-73
2023/01/10 08:02:05;;;;;;;27.58;3.85;;;;;;;4.03;98.23;101692.13;4875080;29;20558;-73
2023/01/10 08:04:32;;;;;;;22.30;3.58;;;;;;;4.04;98.09;101690.41;4857526;29;20050;-73
2023/01/10 08:06:59;;;;;;;18.83;3.90;;;;;;;4.10;98.47;101697.44;4857612;29;20121;-73
2023/01/10 08:09:26;;;;;;;22.05;4.28;;;;;;;4.17;98.58;101692.28;4857340;29;20085;-73
2023/01/10 08:11:53;;;;;;;26.50;3.88;;;;;;;4.25;98.66;101701.94;4875463;29;20486;-72
2023/01/10 08:14:21;;;;;;;21.77;3.47;;;;;;;4.29;98.75;101694.16;4875294;29;20080;-73
2023/01/10 08:16:48;;;;;;;22.80;3.65;;;;;;;4.37;98.72;101706.38;4864331;29;20134;-74
2023/01/10 08:19:16;;;;;;;17.48;3.20;;;;;;;4.44;98.90;101706.47;4874974;29;20045;-73
2023/01/10 08:21:43;;;;;;;22.23;3.65;;;;;;;4.51;98.78;101703.03;4857925;29;20050;-73
2023/01/10 08:24:10;;;;;;;26.08;3.70;;;;;;;4.60;98.76;101702.25;4871244;29;20054;-72
2023/01/10 08:26:37;;;;;;;21.55;4.22;;;;;;;4.67;98.73;101700.56;4872679;29;20106;-72
2023/01/10 08:29:04;;;;;;;22.70;3.75;;;;;;;4.75;98.83;101709.34;4874897;29;20046;-72
2023/01/10 08:31:31;;;;;;;24.20;4.28;;;;;;;4.81;98.47;101700.66;4873020;29;20140;-73
2023/01/10 08:33:58;;;;;;;22.40;3.60;;;;;;;4.87;98.32;101712.91;4875428;29;20482;-72
2023/01/10 08:36:27;;;;;;;22.50;4.10;;;;;;;4.92;97.92;101709.47;4865691;29;20050;-72
2023/01/10 08:38:54;;;;;;;25.58;4.28;;;;;;;4.94;97.63;101715.56;4870724;29;20054;-72
2023/01/10 08:41:21;;;;;;;26.27;3.80;;;;;;;5.00;97.56;101713.88;4874802;29;20069;-72
2023/01/10 08:43:49;;;;;;;22.63;3.35;;;;;;;5.06;97.50;101704.31;4875167;29;20041;-71
2023/01/10 08:46:19;;;;;;;17.13;3.60;;;;;;;5.11;96.78;101713.06;4873916;29;20501;-71
2023/01/10 08:48:47;;;;;;;33.58;4.53;;;;;;;5.23;96.33;101706.16;4875391;29;20498;-73
2023/01/10 08:51:15;;;;;;;19.27;3.45;;;;;;;5.34;95.92;101703.63;4874548;29;20550;-73
2023/01/10 08:53:42;;;;;;;20.63;3.60;;;;;;;5.42;95.83;101705.38;4873214;29;20562;-73
2023/01/10 08:56:09;;;;;;;27.33;3.72;;;;;;;5.50;95.74;101697.59;4866511;29;20045;-72
2023/01/10 08:58:37;;;;;;;19.70;4.22;;;;;;;5.58;95.52;101708.09;4860047;29;20042;-72
2023/01/10 09:01:06;;;;;;;20.45;3.92;;;;;;;5.64;94.63;101694.16;4874438;29;20054;-72
2023/01/10 09:03:34;;;;;;;22.70;3.90;;;;;;;5.68;94.28;101699.41;4874790;29;20569;-73
2023/01/10 09:06:01;;;;;;;15.02;3.17;;;;;;;5.69;93.49;101693.31;4866346;29;20061;-73
2023/01/10 09:08:28;;;;;;;20.95;3.13;;;;;;;5.71;93.52;101688.94;4868855;29;20046;-72
2023/01/10 09:11:01;;;;;;;23.83;3.78;;;;;;;5.70;93.54;101686.31;4869897;29;20057;-72
2023/01/10 09:13:29;;;;;;;23.05;3.70;;;;;;;5.69;92.76;101692.41;4862395;29;20054;-73
2023/01/10 09:15:57;;;;;;;28.23;3.78;;;;;;;5.71;92.18;101690.69;4873888;29;20057;-73
2023/01/10 09:18:25;;;;;;;24.80;3.67;;;;;;;5.68;92.32;101690.66;4874896;29;20049;-75
2023/01/10 09:20:53;;;;;;;23.05;4.30;;;;;;;5.68;92.02;101693.28;4875296;29;20229;-73
2023/01/10 09:23:22;;;;;;;16.95;3.05;;;;;;;5.68;91.98;101688.94;4873883;29;20050;-74
2023/01/10 09:25:52;;;;;;;20.00;3.20;;;;;;;5.67;92.09;101684.59;4874147;29;20052;-73
2023/01/10 09:28:23;;;;;;;20.85;3.53;;;;;;;5.73;92.19;101679.34;4873210;29;20978;-73
2023/01/10 09:30:50;;;;;;;22.60;3.70;;;;;;;5.76;91.89;101681.09;4867242;29;20073;-73
2023/01/10 09:33:18;;;;;;;22.63;3.95;;;;;;;5.80;92.06;101692.47;4869717;29;20054;-74
2023/01/10 09:35:45;;;;;;;19.48;3.40;;;;;;;5.85;92.43;101690.72;4856327;29;20054;-74
2023/01/10 09:38:18;;;;;;;24.67;3.90;;;;;;;5.90;92.95;101678.56;4864250;29;20045;-74
2023/01/10 09:41:09;;;;;;;23.35;3.70;;;;;;;6.00;92.86;101692.56;4874138;29;20045;-74
2023/01/10 09:44:04;;;;;;;25.05;3.63;;;;;;;6.05;92.42;101688.22;4869000;29;20076;-74
2023/01/10 09:46:34;;;;;;;20.50;3.65;;;;;;;6.05;92.81;101685.59;4856363;29;20050;-74
2023/01/10 09:49:21;;;;;;;19.98;3.08;;;;;;;6.10;92.68;101689.06;4855936;29;20053;-73
2023/01/10 09:51:52;;;;;;;18.00;3.78;;;;;;;6.12;92.51;101687.34;4855663;29;20054;-74
2023/01/10 09:54:29;;;;;;;20.08;3.35;;;;;;;6.15;92.43;101689.09;4856218;29;20131;-74
2023/01/10 09:57:00;;;;;;;19.25;3.30;;;;;;;6.17;92.68;101687.34;4871845;29;20058;-74
2023/01/10 09:59:37;;;;;;;20.63;3.72;;;;;;;6.20;92.80;101692.59;4867594;29;20053;-73
2023/01/10 10:02:31;;;;;;;24.10;3.92;;;;;;;6.21;92.75;101697.84;4855608;29;20050;-74
2023/01/10 10:05:23;;;;;;;20.40;3.45;;;;;;;6.24;92.80;101698.72;4856069;29;20140;-74
2023/01/10 10:07:57;;;;;;;21.02;4.13;;;;;;;6.25;92.43;101693.47;4856002;29;20062;-74
2023/01/10 10:10:37;;;;;;;23.83;3.95;;;;;;;6.26;92.30;101702.22;4855784;29;20046;-74
2023/01/10 10:13:42;;;;;;;19.77;3.65;;;;;;;6.32;92.53;101707.44;4855821;29;20960;-75
2023/01/10 10:17:19;;;;;;;23.65;4.00;;;;;;;6.36;92.27;101709.19;4861754;29;21028;-74
2023/01/10 10:20:24;;;;;;;17.75;3.00;;;;;;;6.34;91.95;101703.09;4874045;29;20507;-73
2023/01/10 10:23:39;;;;;;;16.80;3.53;;;;;;;6.37;91.95;101703.97;4874531;29;20061;-74
2023/01/10 10:26:23;;;;;;;19.13;3.65;;;;;;;6.42;92.17;101695.22;4861487;29;20455;-73
2023/01/10 10:29:21;;;;;;;14.73;3.05;;;;;;;6.45;92.02;101680.41;4871903;29;20061;-74
2023/01/10 10:32:25;;;;;;;19.45;3.45;;;;;;;6.51;91.61;101676.91;4855490;29;20054;-74
2023/01/10 10:35:06;;;;;;;16.80;3.38;;;;;;;6.55;91.41;101664.69;4855389;29;20050;-73
2023/01/10 10:37:48;;;;;;;17.92;3.22;;;;;;;6.59;90.92;101662.06;4855225;29;20090;-74
2023/01/10 10:40:24;;;;;;;18.35;4.00;;;;;;;6.62;91.03;101658.56;4854899;29;20133;-73
2023/01/10 10:42:57;;;;;;;25.17;3.72;;;;;;;6.65;90.97;101667.28;4854883;29;20110;-74
2023/01/10 10:45:43;;;;;;;20.08;4.18;;;;;;;6.69;90.41;101662.91;4870193;29;20045;-75
2023/01/10 10:48:22;;;;;;;19.70;4.45;;;;;;;6.71;90.68;101655.06;4873447;29;20057;-74
2023/01/10 10:51:04;;;;;;;16.02;3.00;;;;;;;6.77;90.46;101648.03;4873540;29;20050;-73
2023/01/10 10:53:33;;;;;;;14.63;3.35;;;;;;;6.80;90.44;101645.41;4873711;29;20042;-75
2023/01/10 10:56:14;;;;;;;15.15;3.58;;;;;;;6.84;90.10;101639.31;4873479;29;20052;-75
2023/01/10 10:58:47;;;;;;;16.02;3.90;;;;;;;6.89;89.51;101639.31;4872894;29;20106;-74
2023/01/10 11:01:15;;;;;;;18.25;3.83;;;;;;;6.93;89.68;101642.78;4873337;29;20041;-74
2023/01/10 11:03:56;;;;;;;18.33;3.20;;;;;;;6.97;89.26;101640.16;4873483;29;20041;-74
2023/01/10 11:06:25;;;;;;;18.45;3.40;;;;;;;6.98;89.36;101633.16;4873809;29;20045;-75
2023/01/10 11:08:59;;;;;;;18.38;3.15;;;;;;;7.02;88.88;101631.41;4873507;29;20135;-74
2023/01/10 11:11:38;;;;;;;23.52;3.70;;;;;;;7.05;89.10;101640.13;4873438;29;20125;-74
2023/01/10 11:14:07;;;;;;;21.00;3.72;;;;;;;7.07;89.36;101630.50;4872608;29;20068;-74
2023/01/10 11:16:42;;;;;;;16.85;3.10;;;;;;;7.09;89.31;101628.75;4872940;29;20098;-74
2023/01/10 11:19:19;;;;;;;16.80;3.22;;;;;;;7.15;89.45;101631.38;4873970;29;20124;-75
2023/01/10 11:22:05;;;;;;;14.13;3.33;;;;;;;7.19;89.28;101626.09;4873568;29;20056;-74
2023/01/10 11:24:50;;;;;;;14.88;3.00;;;;;;;7.19;89.17;101624.34;4874067;29;20080;-74
2023/01/10 11:27:22;;;;;;;18.60;3.92;;;;;;;7.22;89.14;101620.84;4872592;29;20050;-74
2023/01/10 11:29:56;;;;;;;13.93;2.90;;;;;;;7.22;89.29;101612.97;4871994;29;20129;-74
2023/01/10 11:32:48;;;;;;;19.00;3.17;;;;;;;7.25;89.08;101607.72;4871684;29;20049;-74
2023/01/10 11:35:24;;;;;;;20.13;3.50;;;;;;;7.27;88.71;101617.31;4873398;29;20050;-74
2023/01/10 11:38:23;;;;;;;16.70;3.28;;;;;;;7.26;88.41;101619.97;4873272;29;20110;-75
2023/01/10 11:41:16;;;;;;;19.45;3.15;;;;;;;7.26;88.10;101606.84;4872722;29;20148;-74
2023/01/10 11:43:43;;;;;;;20.15;3.13;;;;;;;7.26;88.33;101606.84;4873003;29;20153;-74
2023/01/10 11:46:23;;;;;;;19.00;3.58;;;;;;;7.29;88.56;101602.47;4873206;29;20128;-75
2023/01/10 11:49:11;;;;;;;20.23;3.45;;;;;;;7.32;87.01;101598.09;4856853;29;20061;-74
2023/01/10 11:51:51;;;;;;;18.20;3.10;;;;;;;7.28;87.14;101597.19;4854657;29;20050;-75
2023/01/10 11:54:24;;;;;;;16.65;3.83;;;;;;;7.27;87.45;101596.34;4855219;29;20044;-74
2023/01/10 11:57:05;;;;;;;19.48;3.00;;;;;;;7.27;87.77;101591.09;4868977;29;20400;-75
2023/01/10 11:59:33;;;;;;;19.42;2.80;;;;;;;7.29;87.73;101589.34;4872490;29;20073;-75